createdAt,value
2018-12-19T00:00:58.630Z,33.27
2018-12-19T00:03:34.462Z,33.07
2018-12-19T00:06:09.933Z,34.50
2018-12-19T00:08:46.088Z,31.70
2018-12-19T00:11:23.791Z,29.60
2018-12-19T00:13:58.762Z,30.47
2018-12-19T00:16:32.099Z,30.80
2018-12-19T00:19:05.405Z,32.87
2018-12-19T00:21:41.534Z,32.00
2018-12-19T00:24:15.593Z,31.37
2018-12-19T00:26:50.411Z,30.37
2018-12-19T00:29:30.111Z,32.73
2018-12-19T00:32:11.593Z,28.70
2018-12-19T00:34:46.878Z,26.80
2018-12-19T00:37:26.315Z,30.60
2018-12-19T00:39:59.339Z,27.77
2018-12-19T00:42:34.841Z,30.33
2018-12-19T00:45:08.756Z,29.97
2018-12-19T00:47:48.296Z,29.23
2018-12-19T00:50:19.917Z,27.40
2018-12-19T00:52:53.040Z,31.93
2018-12-19T00:55:26.615Z,30.87
2018-12-19T00:58:00.797Z,29.93
2018-12-19T01:00:33.934Z,34.67
2018-12-19T01:03:07.175Z,28.27
2018-12-19T01:05:38.791Z,29.10
2018-12-19T01:08:10.268Z,29.40
2018-12-19T01:10:43.856Z,29.77
2018-12-19T01:13:17.286Z,27.83
2018-12-19T01:15:48.648Z,28.97
2018-12-19T01:18:20.355Z,27.70
2018-12-19T01:20:53.578Z,26.20
2018-12-19T01:23:31.828Z,28.70
2018-12-19T01:26:05.111Z,30.07
2018-12-19T01:28:40.679Z,26.33
2018-12-19T01:31:16.232Z,28.77
2018-12-19T01:33:50.346Z,27.10
2018-12-19T01:36:25.789Z,30.63
2018-12-19T01:38:59.918Z,33.60
2018-12-19T01:41:35.387Z,29.20
2018-12-19T01:44:13.810Z,30.80
2018-12-19T01:46:49.105Z,27.83
2018-12-19T01:49:27.350Z,29.33
2018-12-19T01:52:00.479Z,28.83
2018-12-19T01:54:36.053Z,29.53
2018-12-19T01:57:14.353Z,31.23
2018-12-19T01:59:52.569Z,31.00
2018-12-19T02:02:32.362Z,28.17
2018-12-19T02:05:07.693Z,28.43
2018-12-19T02:07:47.710Z,27.57
2018-12-19T02:10:21.566Z,29.27
2018-12-19T02:13:01.263Z,30.37
2018-12-19T02:15:35.151Z,28.30
2018-12-19T02:18:14.810Z,27.57
2018-12-19T02:20:54.355Z,30.00
2018-12-19T02:23:26.378Z,31.73
2018-12-19T02:25:57.941Z,29.83
2018-12-19T02:28:31.663Z,27.50
2018-12-19T02:31:07.467Z,28.27
2018-12-19T02:33:40.528Z,31.13
2018-12-19T02:36:15.934Z,27.23
2018-12-19T02:38:55.416Z,30.10
2018-12-19T02:41:31.684Z,31.53
2018-12-19T02:44:07.744Z,28.10
2018-12-19T02:46:47.091Z,30.23
2018-12-19T02:49:27.283Z,29.80
2018-12-19T02:52:03.553Z,30.20
2018-12-19T02:54:36.934Z,28.90
2018-12-19T02:57:16.383Z,28.63
2018-12-19T02:59:52.624Z,29.03
2018-12-19T03:02:32.035Z,32.60
2018-12-19T03:05:06.171Z,33.10
2018-12-19T03:07:44.427Z,37.27
2018-12-19T03:10:20.760Z,37.47
2018-12-19T03:12:56.263Z,36.87
2018-12-19T03:15:30.431Z,38.83
2018-12-19T03:18:08.578Z,38.87
2018-12-19T03:20:44.090Z,35.23
2018-12-19T03:23:23.661Z,36.97
2018-12-19T03:25:59.910Z,27.47
2018-12-19T03:28:38.150Z,33.00
2018-12-19T03:31:19.151Z,33.43
2018-12-19T03:33:58.573Z,29.33
2018-12-19T03:36:29.867Z,34.20
2018-12-19T03:39:06.640Z,30.87
2018-12-19T03:41:39.944Z,25.83
2018-12-19T03:44:15.247Z,27.50
2018-12-19T03:46:55.033Z,30.17
2018-12-19T03:49:29.100Z,28.43
2018-12-19T03:52:08.433Z,29.67
2018-12-19T03:54:44.783Z,29.80
2018-12-19T03:57:24.378Z,30.00
2018-12-19T04:00:05.121Z,32.13
2018-12-19T04:02:44.710Z,32.57
2018-12-19T04:05:17.928Z,34.07
2018-12-19T04:07:49.555Z,30.90
2018-12-19T04:10:22.966Z,31.13
2018-12-19T04:13:02.690Z,30.70
2018-12-19T04:15:36.595Z,30.67
2018-12-19T04:18:09.936Z,31.57
2018-12-19T04:20:51.923Z,33.13
2018-12-19T04:23:23.665Z,29.90
2018-12-19T04:25:57.100Z,30.10
2018-12-19T04:28:32.858Z,32.03
2018-12-19T04:31:14.562Z,36.03
2018-12-19T04:33:50.594Z,35.83
2018-12-19T04:36:21.565Z,34.47
2018-12-19T04:38:55.202Z,34.43
2018-12-19T04:41:30.822Z,39.60
2018-12-19T04:44:04.745Z,31.97
2018-12-19T04:46:42.245Z,35.13
2018-12-19T04:49:14.215Z,31.63
2018-12-19T04:51:45.345Z,36.43
2018-12-19T04:54:21.929Z,34.67
2018-12-19T04:56:55.086Z,35.63
2018-12-19T04:59:30.669Z,36.20
2018-12-19T05:02:10.020Z,36.47
2018-12-19T05:04:43.931Z,38.27
2018-12-19T05:07:19.246Z,34.43
2018-12-19T05:09:59.011Z,36.77
2018-12-19T05:12:31.035Z,35.23
2018-12-19T05:15:05.626Z,37.17
2018-12-19T05:17:46.690Z,37.23
2018-12-19T05:20:17.820Z,36.07
2018-12-19T05:22:53.441Z,38.93
2018-12-19T05:25:27.357Z,36.87
2018-12-19T05:28:00.589Z,33.13
2018-12-19T05:30:42.418Z,34.67
2018-12-19T05:33:22.446Z,33.20
2018-12-19T05:35:56.430Z,33.93
2018-12-19T05:38:36.221Z,34.50
2018-12-19T05:41:16.370Z,35.07
2018-12-19T05:43:52.570Z,36.37
2018-12-19T05:46:25.943Z,34.77
2018-12-19T05:48:59.450Z,33.27
2018-12-19T05:51:35.757Z,34.63
2018-12-19T05:54:07.952Z,37.27
2018-12-19T05:56:42.127Z,31.97
2018-12-19T05:59:21.735Z,35.57
2018-12-19T06:01:57.255Z,34.77
2018-12-19T06:04:29.206Z,35.07
2018-12-19T06:07:02.724Z,32.53
2018-12-19T06:09:44.594Z,35.57
2018-12-19T06:12:24.446Z,34.43
2018-12-19T06:14:59.374Z,34.43
2018-12-19T06:17:39.313Z,34.23
2018-12-19T06:20:14.732Z,30.73
2018-12-19T06:22:50.751Z,30.63
2018-12-19T06:25:23.791Z,31.70
2018-12-19T06:28:03.703Z,35.97
2018-12-19T06:30:43.176Z,39.80
2018-12-19T06:33:23.293Z,38.23
2018-12-19T06:35:55.201Z,37.53
2018-12-19T06:38:28.586Z,52.93
2018-12-19T06:41:04.009Z,37.47
2018-12-19T06:43:43.819Z,39.40
2018-12-19T06:46:17.464Z,37.00
2018-12-19T06:48:51.838Z,37.60
2018-12-19T06:51:31.778Z,37.07
2018-12-19T06:54:11.990Z,38.30
2018-12-19T06:56:43.323Z,39.10
2018-12-19T06:59:16.634Z,39.03
2018-12-19T07:01:56.231Z,42.77
2018-12-19T07:04:30.279Z,41.00
2018-12-19T07:07:10.045Z,39.00
2018-12-19T07:09:48.262Z,39.07
2018-12-19T07:12:20.141Z,38.23
2018-12-19T07:14:56.225Z,38.47
2018-12-19T07:17:30.231Z,36.00
2018-12-19T07:20:06.138Z,38.87
2018-12-19T07:22:38.146Z,38.80
2018-12-19T07:25:11.672Z,38.23
2018-12-19T07:27:51.533Z,37.97
2018-12-19T07:30:29.795Z,35.63
2018-12-19T07:33:01.655Z,35.57
2018-12-19T07:35:37.212Z,39.20
2018-12-19T07:38:16.600Z,39.80
2018-12-19T07:40:55.255Z,36.87
2018-12-19T07:43:33.241Z,36.50
2018-12-19T07:46:08.737Z,37.00
2018-12-19T07:48:40.928Z,35.13
2018-12-19T07:51:19.093Z,35.60
2018-12-19T07:53:51.138Z,38.10
2018-12-19T07:56:24.584Z,34.00
2018-12-19T07:58:58.771Z,38.57
2018-12-19T08:01:38.509Z,35.97
2018-12-19T08:04:09.733Z,35.40
2018-12-19T08:06:43.162Z,35.37
2018-12-19T08:09:20.725Z,36.97
2018-12-19T08:11:54.546Z,37.73
2018-12-19T08:14:28.285Z,34.20
2018-12-19T08:17:02.185Z,37.27
2018-12-19T08:19:35.563Z,37.93
2018-12-19T08:22:08.881Z,39.70
2018-12-19T08:24:42.106Z,36.20
2018-12-19T08:27:16.212Z,39.80
2018-12-19T08:29:56.754Z,38.83
2018-12-19T08:32:39.124Z,37.80
2018-12-19T08:35:11.752Z,32.23
2018-12-19T08:37:45.126Z,40.40
2018-12-19T08:40:18.473Z,38.97
2018-12-19T08:42:51.857Z,33.73
2018-12-19T08:45:26.040Z,38.60
2018-12-19T08:47:59.365Z,32.67
2018-12-19T08:50:39.405Z,32.13
2018-12-19T08:53:19.238Z,37.23
2018-12-19T08:55:53.284Z,35.10
2018-12-19T08:58:27.068Z,38.13
2018-12-19T09:01:01.313Z,37.00
2018-12-19T09:03:34.401Z,35.57
2018-12-19T09:06:08.125Z,38.77
2018-12-19T09:08:42.201Z,34.20
2018-12-19T09:11:22.135Z,35.90
2018-12-19T09:13:56.032Z,35.17
2018-12-19T09:16:30.334Z,35.97
2018-12-19T09:19:04.116Z,34.63
2018-12-19T09:21:37.301Z,34.33
2018-12-19T09:24:13.101Z,35.67
2018-12-19T09:26:53.232Z,33.77
2018-12-19T09:29:26.776Z,32.03
2018-12-19T09:31:57.851Z,34.30
2018-12-19T09:34:31.830Z,32.60
2018-12-19T09:37:06.236Z,35.13
2018-12-19T09:39:40.549Z,33.20
2018-12-19T09:42:14.963Z,32.17
2018-12-19T09:44:48.660Z,36.73
2018-12-19T09:47:28.106Z,34.50
2018-12-19T09:50:04.122Z,32.67
2018-12-19T09:52:37.652Z,31.00
2018-12-19T09:55:10.914Z,33.27
2018-12-19T09:57:44.545Z,32.67
2018-12-19T10:00:23.430Z,31.20
2018-12-19T10:02:57.237Z,35.10
2018-12-19T10:05:31.268Z,31.97
2018-12-19T10:08:10.564Z,33.37
2018-12-19T10:10:43.660Z,33.87
2018-12-19T10:23:32.773Z,34.80
2018-12-19T10:26:12.748Z,32.97
2018-12-19T10:28:46.097Z,31.60
2018-12-19T10:31:21.529Z,30.70
2018-12-19T10:33:55.022Z,30.80
2018-12-19T10:36:34.181Z,32.43
2018-12-19T10:39:17.677Z,31.03
2018-12-19T10:41:51.533Z,28.23
2018-12-19T10:44:24.985Z,34.90
2018-12-19T10:46:58.023Z,33.87
2018-12-19T10:49:31.258Z,29.43
2018-12-19T10:52:05.791Z,35.57
2018-12-19T10:54:39.321Z,33.77
2018-12-19T10:57:17.387Z,32.83
2018-12-19T10:59:55.765Z,33.50
2018-12-19T11:02:29.780Z,31.53
2018-12-19T11:05:03.546Z,33.70
2018-12-19T11:07:37.819Z,28.43
2018-12-19T11:10:11.683Z,31.07
2018-12-19T11:12:45.736Z,34.07
2018-12-19T11:15:19.557Z,30.43
2018-12-19T11:17:50.785Z,34.70
2018-12-19T11:20:24.103Z,35.50
2018-12-19T11:22:57.246Z,31.83
2018-12-19T11:25:30.874Z,33.33
2018-12-19T11:35:42.467Z,34.93
2018-12-19T11:38:18.081Z,32.63
2018-12-19T11:40:51.884Z,33.10
2018-12-19T11:43:25.624Z,34.83
2018-12-19T11:45:59.125Z,35.67
2018-12-19T11:48:33.001Z,37.30
2018-12-19T11:51:08.682Z,37.90
2018-12-19T11:53:44.205Z,36.93
2018-12-19T11:56:19.789Z,40.73
2018-12-19T11:58:53.265Z,35.70
2018-12-19T12:01:32.853Z,35.50
2018-12-19T12:04:06.939Z,37.60
2018-12-19T12:06:42.616Z,35.70
2018-12-19T12:09:22.928Z,35.43
2018-12-19T12:11:55.055Z,35.93
2018-12-19T12:14:28.914Z,36.07
2018-12-19T12:17:02.512Z,35.00
2018-12-19T12:19:36.824Z,38.30
2018-12-19T12:22:11.065Z,35.83
2018-12-19T12:24:54.320Z,34.63
2018-12-19T12:27:28.134Z,35.80
2018-12-19T12:30:10.731Z,36.03
2018-12-19T12:32:50.448Z,35.27
2018-12-19T12:35:24.085Z,37.37
2018-12-19T12:37:57.700Z,36.40
2018-12-19T12:40:37.953Z,36.13
2018-12-19T12:43:12.251Z,33.93
2018-12-19T12:45:46.196Z,33.83
2018-12-19T12:48:19.664Z,38.60
2018-12-19T12:50:58.883Z,39.43
2018-12-19T12:53:38.949Z,33.87
2018-12-19T12:56:12.729Z,35.07
2018-12-19T12:58:46.142Z,33.13
2018-12-19T13:01:24.762Z,31.13
2018-12-19T13:04:03.046Z,30.80
2018-12-19T13:06:38.638Z,38.00
2018-12-19T13:09:12.575Z,38.00
2018-12-19T13:11:50.982Z,33.07
2018-12-19T13:14:25.476Z,36.77
2018-12-19T13:16:59.158Z,35.70
2018-12-19T13:19:33.209Z,35.87
2018-12-19T13:22:12.866Z,35.47
2018-12-19T13:24:47.026Z,36.73
2018-12-19T13:27:23.136Z,36.70
2018-12-19T13:29:56.409Z,34.07
2018-12-19T13:32:30.689Z,37.00
2018-12-19T13:35:06.980Z,36.53
2018-12-19T13:37:41.255Z,39.00
2018-12-19T13:40:15.347Z,37.50
2018-12-19T13:42:57.951Z,36.60
2018-12-19T13:45:32.492Z,39.20
2018-12-19T13:48:06.793Z,38.13
2018-12-19T13:50:49.348Z,38.57
2018-12-19T13:53:22.919Z,40.77
2018-12-19T13:56:00.613Z,44.30
2018-12-19T13:58:40.577Z,39.27
2018-12-19T14:01:14.257Z,38.43
2018-12-19T14:03:48.112Z,45.63
2018-12-19T14:06:20.074Z,37.47
2018-12-19T14:08:53.584Z,35.50
2018-12-19T14:11:33.187Z,37.10
2018-12-19T14:14:13.214Z,39.60
2018-12-19T14:16:51.357Z,36.30
2018-12-19T14:19:25.563Z,38.00
2018-12-19T14:22:03.888Z,35.63
2018-12-19T14:24:38.241Z,34.73
2018-12-19T14:27:12.061Z,36.23
2018-12-19T14:29:52.356Z,38.70
2018-12-19T14:32:32.349Z,39.63
2018-12-19T14:35:05.950Z,36.97
2018-12-19T14:37:40.004Z,37.90
2018-12-19T14:40:13.752Z,38.73
2018-12-19T14:42:48.735Z,37.30
2018-12-19T14:45:23.179Z,39.63
2018-12-19T14:48:03.304Z,41.10
2018-12-19T14:50:36.912Z,35.87
2018-12-19T14:53:08.561Z,35.73
2018-12-19T14:55:43.453Z,37.90
2018-12-19T14:58:17.483Z,39.80
2018-12-19T15:00:51.801Z,37.83
2018-12-19T15:03:32.246Z,37.90
2018-12-19T15:06:08.326Z,43.60
2018-12-19T15:08:42.402Z,43.20
2018-12-19T15:11:16.164Z,41.00
2018-12-19T15:13:50.332Z,40.30
2018-12-19T15:16:24.884Z,40.93
2018-12-19T15:18:59.203Z,41.67
2018-12-19T15:21:31.177Z,43.43
2018-12-19T15:24:04.246Z,41.63
2018-12-19T15:26:43.842Z,43.87
2018-12-19T15:29:17.898Z,46.37
2018-12-19T15:31:51.169Z,42.43
2018-12-19T15:34:24.390Z,42.80
2018-12-19T15:37:04.105Z,41.50
2018-12-19T15:39:38.145Z,39.97
2018-12-19T15:42:18.021Z,38.43
2018-12-19T15:44:52.072Z,39.90
2018-12-19T15:47:23.373Z,38.00
2018-12-19T15:49:59.051Z,37.87
2018-12-19T15:52:33.172Z,39.60
2018-12-19T15:55:06.517Z,39.90
2018-12-19T15:57:39.780Z,33.93
2018-12-19T16:00:17.279Z,41.03
2018-12-19T16:02:54.548Z,41.00
2018-12-19T16:05:28.265Z,36.53
2018-12-19T16:08:07.885Z,38.17
2018-12-19T16:10:48.012Z,38.57
2018-12-19T16:13:21.769Z,38.63
2018-12-19T16:15:58.236Z,38.43
2018-12-19T16:18:38.258Z,38.23
2018-12-19T16:21:12.174Z,38.67
2018-12-19T16:23:50.453Z,41.53
2018-12-19T16:26:27.809Z,38.50
2018-12-19T16:29:01.742Z,37.77
2018-12-19T16:31:35.977Z,39.77
2018-12-19T16:34:09.589Z,36.83
2018-12-19T16:36:51.364Z,38.17
2018-12-19T16:39:24.805Z,41.00
2018-12-19T16:42:04.938Z,40.50
2018-12-19T16:44:38.653Z,38.87
2018-12-19T16:47:16.911Z,41.77
2018-12-19T16:49:57.154Z,35.47
2018-12-19T16:52:31.102Z,39.63
2018-12-19T16:55:05.533Z,40.50
2018-12-19T16:57:43.348Z,41.27
2018-12-19T17:00:23.155Z,38.73
2018-12-19T17:03:11.453Z,36.30
2018-12-19T17:05:44.988Z,36.87
2018-12-19T17:08:18.029Z,38.93
2018-12-19T17:10:57.485Z,33.30
2018-12-19T17:13:29.203Z,37.60
2018-12-19T17:16:02.609Z,35.50
2018-12-19T17:18:38.294Z,36.47
2018-12-19T17:21:18.289Z,36.43
2018-12-19T17:23:51.970Z,37.17
2018-12-19T17:26:25.362Z,36.23
2018-12-19T17:28:59.562Z,37.87
2018-12-19T17:31:39.161Z,33.77
2018-12-19T17:34:17.239Z,38.67
2018-12-19T17:36:49.153Z,37.00
2018-12-19T17:39:24.529Z,35.67
2018-12-19T17:42:02.593Z,35.50
2018-12-19T17:44:37.307Z,34.13
2018-12-19T17:47:13.385Z,36.57
2018-12-19T17:49:48.985Z,37.57
2018-12-19T17:52:27.170Z,36.77
2018-12-19T18:05:22.005Z,36.77
2018-12-19T18:07:57.283Z,40.80
2018-12-19T18:10:31.279Z,36.50
2018-12-19T18:13:06.252Z,41.70
2018-12-19T18:15:39.696Z,37.77
2018-12-19T18:18:17.187Z,38.73
2018-12-19T18:20:50.235Z,39.33
2018-12-19T18:23:23.548Z,37.03
2018-12-19T18:25:57.278Z,42.30
2018-12-19T18:28:31.182Z,42.13
2018-12-19T18:31:07.064Z,42.07
2018-12-19T18:33:47.150Z,44.43
2018-12-19T18:36:21.113Z,39.77
2018-12-19T18:38:56.580Z,38.77
2018-12-19T18:41:30.402Z,40.27
2018-12-19T18:44:05.963Z,39.57
2018-12-19T18:46:44.025Z,38.83
2018-12-19T18:49:22.196Z,39.50
2018-12-19T18:52:05.690Z,42.20
2018-12-19T18:54:41.332Z,41.40
2018-12-19T18:57:17.325Z,43.67
2018-12-19T19:00:00.755Z,44.33
2018-12-19T19:02:36.703Z,38.93
2018-12-19T19:05:08.311Z,39.83
2018-12-19T19:15:22.053Z,37.33
2018-12-19T19:17:55.650Z,38.63
2018-12-19T19:20:32.137Z,38.53
2018-12-19T19:23:06.053Z,41.70
2018-12-19T19:25:41.639Z,37.27
2018-12-19T19:28:17.609Z,38.50
2018-12-19T19:30:51.322Z,37.63
2018-12-19T19:33:31.725Z,38.80
2018-12-19T19:36:05.546Z,36.90
2018-12-19T19:38:40.878Z,37.00
2018-12-19T19:41:14.893Z,34.03
2018-12-19T19:43:48.820Z,38.20
2018-12-19T19:46:22.195Z,38.77
2018-12-19T19:48:55.297Z,39.77
2018-12-19T19:51:37.026Z,39.50
2018-12-19T19:54:17.931Z,35.13
2018-12-19T20:00:06.798Z,35.27
2018-12-19T20:02:40.190Z,36.30
2018-12-19T20:05:13.345Z,35.67
2018-12-19T20:07:55.349Z,33.77
2018-12-19T20:10:28.653Z,34.40
2018-12-19T20:13:10.373Z,34.70
2018-12-19T20:15:43.649Z,35.10
2018-12-19T20:18:19.384Z,34.90
2018-12-19T20:20:53.213Z,44.83
2018-12-19T20:23:27.033Z,33.83
2018-12-19T20:26:06.456Z,36.43
2018-12-19T20:28:43.497Z,33.17
2018-12-19T20:31:17.177Z,36.83
2018-12-19T20:33:50.413Z,34.20
2018-12-19T20:36:26.606Z,34.83
2018-12-19T20:39:00.590Z,34.43
2018-12-19T20:41:33.969Z,36.30
2018-12-19T20:44:07.092Z,33.87
2018-12-19T20:46:42.661Z,33.97
2018-12-19T20:49:16.104Z,37.07
2018-12-19T20:51:52.151Z,35.67
2018-12-19T20:54:25.970Z,34.33
2018-12-19T20:57:06.851Z,33.43
2018-12-19T20:59:40.596Z,33.13
2018-12-19T21:02:13.987Z,35.80
2018-12-19T21:04:53.362Z,36.60
2018-12-19T21:07:29.618Z,35.20
2018-12-19T21:10:02.891Z,34.23
2018-12-19T21:12:35.867Z,38.63
2018-12-19T21:18:25.806Z,35.13
2018-12-19T21:21:01.341Z,36.50
2018-12-19T21:23:35.095Z,34.00
2018-12-19T21:26:10.822Z,33.07
2018-12-19T21:28:44.606Z,34.00
2018-12-19T21:31:20.881Z,33.60
2018-12-19T21:33:56.614Z,36.17
2018-12-19T21:36:30.528Z,33.57
2018-12-19T21:39:07.598Z,34.57
2018-12-19T21:41:45.849Z,34.27
2018-12-19T21:44:27.902Z,32.87
2018-12-19T21:47:07.401Z,33.03
2018-12-19T21:49:41.281Z,35.07
2018-12-19T21:52:16.880Z,34.87
2018-12-19T21:54:50.875Z,34.50
2018-12-19T21:57:24.350Z,37.00
2018-12-19T21:59:58.461Z,36.20
2018-12-19T22:02:35.396Z,35.37
2018-12-19T22:05:11.116Z,34.90
2018-12-19T22:07:47.357Z,37.70
2018-12-19T22:10:24.523Z,35.27
2018-12-19T22:12:59.451Z,37.67
2018-12-19T22:15:41.087Z,35.60
2018-12-19T22:18:22.005Z,36.33
2018-12-19T22:20:57.762Z,37.00
2018-12-19T22:23:33.818Z,36.37
2018-12-19T22:26:09.869Z,37.37
2018-12-19T22:28:43.959Z,35.13
2018-12-19T22:31:19.550Z,36.17
2018-12-19T22:33:57.795Z,35.10
2018-12-19T22:36:35.971Z,36.70
2018-12-19T22:39:14.457Z,37.77
2018-12-19T22:41:54.622Z,36.43
2018-12-19T22:44:27.675Z,36.03
2018-12-19T22:47:01.192Z,37.07
2018-12-19T22:49:43.112Z,35.93
2018-12-19T22:52:14.662Z,38.50
2018-12-19T22:54:51.163Z,38.67
2018-12-19T23:00:41.730Z,38.83
2018-12-19T23:03:17.078Z,38.90
2018-12-19T23:05:51.075Z,37.73
2018-12-19T23:08:26.527Z,39.40
2018-12-19T23:11:00.573Z,37.60
2018-12-19T23:13:34.728Z,35.53
2018-12-19T23:16:12.320Z,39.30
2018-12-19T23:18:51.348Z,41.17
2018-12-19T23:21:30.170Z,40.33
2018-12-19T23:24:11.475Z,37.30
2018-12-19T23:26:47.062Z,37.70
2018-12-19T23:29:26.284Z,36.63
2018-12-19T23:31:59.954Z,39.50
2018-12-19T23:34:35.505Z,35.70
2018-12-19T23:37:11.685Z,36.03
2018-12-19T23:39:51.791Z,34.67
2018-12-19T23:42:27.879Z,33.80
2018-12-19T23:45:01.837Z,36.33
2018-12-19T23:47:37.036Z,35.17
2018-12-19T23:50:08.163Z,35.43
2018-12-19T23:52:41.362Z,35.23
2018-12-19T23:55:16.978Z,34.73
2018-12-19T23:57:50.510Z,34.00
